sensor_id;sensor_type;location;lat;lon;timestamp;pressure;altitude;pressure_sealevel;temperature;humidity
52855;BME280;38719;51.418;7.286;2023-08-08T00:02:06;99671.53;;;16.24;65.03
52855;BME280;38719;51.418;7.286;2023-08-08T00:04:33;99666.78;;;16.28;65.51
52855;BME280;38719;51.418;7.286;2023-08-08T00:07:03;99663.13;;;16.29;65.25
52855;BME280;38719;51.418;7.286;2023-08-08T00:09:30;99658.34;;;16.21;64.99
52855;BME280;38719;51.418;7.286;2023-08-08T00:11:58;99655.47;;;16.11;65.55
52855;BME280;38719;51.418;7.286;2023-08-08T00:14:26;99659.81;;;16.25;65.10
52855;BME280;38719;51.418;7.286;2023-08-08T00:16:54;99654.63;;;16.35;64.96
52855;BME280;38719;51.418;7.286;2023-08-08T00:19:21;99657.97;;;16.26;64.71
52855;BME280;38719;51.418;7.286;2023-08-08T00:21:49;99653.88;;;16.33;64.82
52855;BME280;38719;51.418;7.286;2023-08-08T00:24:18;99650.31;;;16.08;65.07
52855;BME280;38719;51.418;7.286;2023-08-08T00:26:45;99655.59;;;15.97;66.28
52855;BME280;38719;51.418;7.286;2023-08-08T00:29:13;99662.50;;;16.25;65.15
52855;BME280;38719;51.418;7.286;2023-08-08T00:31:40;99657.75;;;16.29;64.48
52855;BME280;38719;51.418;7.286;2023-08-08T00:34:08;99656.75;;;16.19;64.90
52855;BME280;38719;51.418;7.286;2023-08-08T00:36:35;99649.78;;;16.03;65.55
52855;BME280;38719;51.418;7.286;2023-08-08T00:39:03;99646.19;;;16.16;64.85
52855;BME280;38719;51.418;7.286;2023-08-08T00:41:32;99646.84;;;16.19;65.01
52855;BME280;38719;51.418;7.286;2023-08-08T00:43:59;99648.13;;;16.14;65.08
52855;BME280;38719;51.418;7.286;2023-08-08T00:46:27;99642.81;;;16.01;65.53
52855;BME280;38719;51.418;7.286;2023-08-08T00:48:55;99636.03;;;15.95;65.19
52855;BME280;38719;51.418;7.286;2023-08-08T00:51:24;99645.41;;;15.89;65.70
52855;BME280;38719;51.418;7.286;2023-08-08T00:53:51;99642.16;;;16.10;64.91
52855;BME280;38719;51.418;7.286;2023-08-08T00:56:19;99647.22;;;16.02;64.84
52855;BME280;38719;51.418;7.286;2023-08-08T00:58:48;99650.81;;;16.14;64.60
52855;BME280;38719;51.418;7.286;2023-08-08T01:01:17;99649.91;;;16.02;64.49
52855;BME280;38719;51.418;7.286;2023-08-08T01:03:45;99655.41;;;16.00;64.85
52855;BME280;38719;51.418;7.286;2023-08-08T01:06:17;99645.72;;;15.98;65.08
52855;BME280;38719;51.418;7.286;2023-08-08T01:08:50;99638.84;;;16.06;65.02
52855;BME280;38719;51.418;7.286;2023-08-08T01:11:18;99642.09;;;15.86;65.64
52855;BME280;38719;51.418;7.286;2023-08-08T01:13:46;99647.66;;;15.95;65.34
52855;BME280;38719;51.418;7.286;2023-08-08T01:16:15;99640.50;;;15.83;65.91
52855;BME280;38719;51.418;7.286;2023-08-08T01:18:46;99647.66;;;15.83;65.63
52855;BME280;38719;51.418;7.286;2023-08-08T01:21:15;99642.41;;;15.94;65.07
52855;BME280;38719;51.418;7.286;2023-08-08T01:23:46;99644.09;;;15.95;65.06
52855;BME280;38719;51.418;7.286;2023-08-08T01:26:20;99637.75;;;15.96;65.05
52855;BME280;38719;51.418;7.286;2023-08-08T01:28:48;99636.28;;;15.92;65.01
52855;BME280;38719;51.418;7.286;2023-08-08T01:31:15;99634.69;;;15.89;65.22
52855;BME280;38719;51.418;7.286;2023-08-08T01:33:43;99631.63;;;16.07;64.61
52855;BME280;38719;51.418;7.286;2023-08-08T01:36:15;99634.22;;;15.95;64.72
52855;BME280;38719;51.418;7.286;2023-08-08T01:38:48;99632.63;;;15.93;64.76
52855;BME280;38719;51.418;7.286;2023-08-08T01:41:20;99635.84;;;15.98;64.65
52855;BME280;38719;51.418;7.286;2023-08-08T01:43:49;99637.03;;;15.94;64.90
52855;BME280;38719;51.418;7.286;2023-08-08T01:46:17;99632.91;;;16.01;64.51
52855;BME280;38719;51.418;7.286;2023-08-08T01:48:45;99634.59;;;16.15;64.15
52855;BME280;38719;51.418;7.286;2023-08-08T01:51:13;99637.31;;;16.02;64.55
52855;BME280;38719;51.418;7.286;2023-08-08T01:53:41;99632.25;;;16.10;64.26
52855;BME280;38719;51.418;7.286;2023-08-08T01:56:09;99635.16;;;16.07;64.39
52855;BME280;38719;51.418;7.286;2023-08-08T01:58:38;99626.03;;;16.10;64.28
52855;BME280;38719;51.418;7.286;2023-08-08T02:01:05;99627.53;;;16.14;64.62
52855;BME280;38719;51.418;7.286;2023-08-08T02:03:33;99620.75;;;16.08;64.03
52855;BME280;38719;51.418;7.286;2023-08-08T02:06:01;99625.84;;;16.00;64.52
52855;BME280;38719;51.418;7.286;2023-08-08T02:08:28;99629.25;;;16.02;64.32
52855;BME280;38719;51.418;7.286;2023-08-08T02:10:56;99605.47;;;15.85;64.89
52855;BME280;38719;51.418;7.286;2023-08-08T02:13:24;99607.59;;;15.79;65.17
52855;BME280;38719;51.418;7.286;2023-08-08T02:15:52;99600.16;;;16.09;64.08
52855;BME280;38719;51.418;7.286;2023-08-08T02:18:20;99600.66;;;16.14;63.91
52855;BME280;38719;51.418;7.286;2023-08-08T02:20:48;99594.25;;;16.04;63.90
52855;BME280;38719;51.418;7.286;2023-08-08T02:23:15;99590.94;;;16.00;64.24
52855;BME280;38719;51.418;7.286;2023-08-08T02:25:43;99578.41;;;15.88;64.81
52855;BME280;38719;51.418;7.286;2023-08-08T02:28:10;99577.72;;;15.97;64.04
52855;BME280;38719;51.418;7.286;2023-08-08T02:30:38;99586.94;;;16.06;64.25
52855;BME280;38719;51.418;7.286;2023-08-08T02:33:07;99598.09;;;16.13;64.39
52855;BME280;38719;51.418;7.286;2023-08-08T02:35:36;99607.25;;;16.10;64.25
52855;BME280;38719;51.418;7.286;2023-08-08T02:38:04;99599.63;;;16.04;64.34
52855;BME280;38719;51.418;7.286;2023-08-08T02:40:31;99600.59;;;16.03;63.98
52855;BME280;38719;51.418;7.286;2023-08-08T02:43:03;99596.72;;;16.07;64.49
52855;BME280;38719;51.418;7.286;2023-08-08T02:45:30;99595.72;;;16.32;63.74
52855;BME280;38719;51.418;7.286;2023-08-08T02:47:58;99590.56;;;16.05;64.40
52855;BME280;38719;51.418;7.286;2023-08-08T02:50:27;99588.66;;;16.07;64.08
52855;BME280;38719;51.418;7.286;2023-08-08T02:52:55;99585.97;;;16.07;64.49
52855;BME280;38719;51.418;7.286;2023-08-08T02:55:23;99590.63;;;15.92;64.53
52855;BME280;38719;51.418;7.286;2023-08-08T02:57:51;99591.41;;;15.94;64.86
52855;BME280;38719;51.418;7.286;2023-08-08T03:00:18;99584.00;;;15.85;65.01
52855;BME280;38719;51.418;7.286;2023-08-08T03:02:46;99578.84;;;15.82;65.38
52855;BME280;38719;51.418;7.286;2023-08-08T03:05:14;99586.34;;;15.76;65.94
52855;BME280;38719;51.418;7.286;2023-08-08T03:07:43;99585.91;;;15.83;65.91
52855;BME280;38719;51.418;7.286;2023-08-08T03:10:10;99589.09;;;16.01;65.44
52855;BME280;38719;51.418;7.286;2023-08-08T03:12:38;99573.78;;;15.90;65.38
52855;BME280;38719;51.418;7.286;2023-08-08T03:15:06;99575.59;;;15.76;66.25
52855;BME280;38719;51.418;7.286;2023-08-08T03:17:34;99577.88;;;15.70;66.50
52855;BME280;38719;51.418;7.286;2023-08-08T03:20:02;99571.75;;;15.80;66.17
52855;BME280;38719;51.418;7.286;2023-08-08T03:22:32;99571.66;;;15.69;67.00
52855;BME280;38719;51.418;7.286;2023-08-08T03:25:01;99561.66;;;15.84;66.76
52855;BME280;38719;51.418;7.286;2023-08-08T03:27:30;99556.16;;;15.73;66.88
52855;BME280;38719;51.418;7.286;2023-08-08T03:29:58;99565.53;;;15.67;67.98
52855;BME280;38719;51.418;7.286;2023-08-08T03:32:25;99563.63;;;15.69;67.53
52855;BME280;38719;51.418;7.286;2023-08-08T03:34:53;99557.63;;;15.53;68.46
52855;BME280;38719;51.418;7.286;2023-08-08T03:37:21;99568.59;;;15.50;68.98
52855;BME280;38719;51.418;7.286;2023-08-08T03:39:48;99570.97;;;15.28;69.91
52855;BME280;38719;51.418;7.286;2023-08-08T03:42:17;99579.75;;;15.43;70.37
52855;BME280;38719;51.418;7.286;2023-08-08T03:44:45;99578.31;;;15.63;69.45
52855;BME280;38719;51.418;7.286;2023-08-08T03:47:12;99588.09;;;15.52;70.26
52855;BME280;38719;51.418;7.286;2023-08-08T03:49:45;99583.72;;;15.38;71.69
52855;BME280;38719;51.418;7.286;2023-08-08T03:52:13;99574.72;;;15.13;73.37
52855;BME280;38719;51.418;7.286;2023-08-08T03:54:41;99572.69;;;15.17;73.86
52855;BME280;38719;51.418;7.286;2023-08-08T03:57:09;99564.75;;;15.28;74.28
52855;BME280;38719;51.418;7.286;2023-08-08T03:59:37;99563.88;;;15.40;73.70
52855;BME280;38719;51.418;7.286;2023-08-08T04:02:05;99560.03;;;15.44;73.23
52855;BME280;38719;51.418;7.286;2023-08-08T04:04:33;99563.22;;;15.50;73.20
52855;BME280;38719;51.418;7.286;2023-08-08T04:07:00;99565.47;;;15.56;72.87
52855;BME280;38719;51.418;7.286;2023-08-08T04:09:28;99579.75;;;15.43;72.91
52855;BME280;38719;51.418;7.286;2023-08-08T04:11:56;99562.69;;;15.31;73.75
52855;BME280;38719;51.418;7.286;2023-08-08T04:14:24;99563.56;;;15.19;74.65
52855;BME280;38719;51.418;7.286;2023-08-08T04:16:53;99561.31;;;15.13;74.92
52855;BME280;38719;51.418;7.286;2023-08-08T04:19:21;99552.75;;;15.08;74.87
52855;BME280;38719;51.418;7.286;2023-08-08T04:21:49;99560.69;;;15.09;74.81
52855;BME280;38719;51.418;7.286;2023-08-08T04:24:17;99561.63;;;15.08;74.66
52855;BME280;38719;51.418;7.286;2023-08-08T04:26:45;99563.25;;;15.11;74.86
52855;BME280;38719;51.418;7.286;2023-08-08T04:29:12;99561.00;;;14.92;75.58
52855;BME280;38719;51.418;7.286;2023-08-08T04:31:40;99552.75;;;14.69;76.39
52855;BME280;38719;51.418;7.286;2023-08-08T04:34:09;99564.00;;;14.74;76.50
52855;BME280;38719;51.418;7.286;2023-08-08T04:36:36;99560.13;;;14.78;76.00
52855;BME280;38719;51.418;7.286;2023-08-08T04:39:04;99560.78;;;14.82;75.89
52855;BME280;38719;51.418;7.286;2023-08-08T04:41:32;99559.16;;;14.79;76.30
52855;BME280;38719;51.418;7.286;2023-08-08T04:43:59;99557.47;;;14.91;76.09
52855;BME280;38719;51.418;7.286;2023-08-08T04:46:27;99555.31;;;15.09;75.80
52855;BME280;38719;51.418;7.286;2023-08-08T04:48:55;99551.34;;;14.76;76.47
52855;BME280;38719;51.418;7.286;2023-08-08T04:51:25;99553.81;;;14.79;76.72
52855;BME280;38719;51.418;7.286;2023-08-08T04:53:53;99540.28;;;14.68;77.37
52855;BME280;38719;51.418;7.286;2023-08-08T04:56:20;99544.34;;;14.74;77.24
52855;BME280;38719;51.418;7.286;2023-08-08T04:58:48;99545.34;;;14.86;77.19
52855;BME280;38719;51.418;7.286;2023-08-08T05:01:15;99544.94;;;14.79;76.98
52855;BME280;38719;51.418;7.286;2023-08-08T05:03:44;99542.03;;;14.95;76.63
52855;BME280;38719;51.418;7.286;2023-08-08T05:06:12;99533.44;;;14.90;76.11
52855;BME280;38719;51.418;7.286;2023-08-08T05:08:41;99545.22;;;14.87;76.72
52855;BME280;38719;51.418;7.286;2023-08-08T05:11:09;99542.03;;;14.95;77.06
52855;BME280;38719;51.418;7.286;2023-08-08T05:13:36;99532.69;;;15.01;77.11
52855;BME280;38719;51.418;7.286;2023-08-08T05:16:04;99543.28;;;15.02;76.88
52855;BME280;38719;51.418;7.286;2023-08-08T05:18:32;99543.94;;;15.06;76.67
52855;BME280;38719;51.418;7.286;2023-08-08T05:21:00;99542.66;;;15.11;76.44
52855;BME280;38719;51.418;7.286;2023-08-08T05:23:27;99548.69;;;15.15;76.77
52855;BME280;38719;51.418;7.286;2023-08-08T05:25:57;99546.84;;;15.28;76.58
52855;BME280;38719;51.418;7.286;2023-08-08T05:28:25;99542.19;;;15.30;76.40
52855;BME280;38719;51.418;7.286;2023-08-08T05:30:53;99532.19;;;15.45;76.08
52855;BME280;38719;51.418;7.286;2023-08-08T05:33:20;99553.56;;;15.47;75.92
52855;BME280;38719;51.418;7.286;2023-08-08T05:35:48;99547.22;;;15.48;75.51
52855;BME280;38719;51.418;7.286;2023-08-08T05:38:15;99541.75;;;15.37;75.41
52855;BME280;38719;51.418;7.286;2023-08-08T05:40:43;99551.28;;;15.54;75.32
52855;BME280;38719;51.418;7.286;2023-08-08T05:43:12;99550.09;;;15.58;75.77
52855;BME280;38719;51.418;7.286;2023-08-08T05:45:43;99547.19;;;15.61;75.81
52855;BME280;38719;51.418;7.286;2023-08-08T05:48:11;99556.53;;;15.68;75.31
52855;BME280;38719;51.418;7.286;2023-08-08T05:50:39;99553.81;;;15.31;76.67
52855;BME280;38719;51.418;7.286;2023-08-08T05:53:07;99550.44;;;15.53;76.40
52855;BME280;38719;51.418;7.286;2023-08-08T05:55:35;99557.03;;;15.73;75.37
52855;BME280;38719;51.418;7.286;2023-08-08T05:58:03;99561.19;;;15.40;77.20
52855;BME280;38719;51.418;7.286;2023-08-08T06:00:32;99566.34;;;15.93;75.17
52855;BME280;38719;51.418;7.286;2023-08-08T06:03:01;99563.03;;;15.90;74.66
52855;BME280;38719;51.418;7.286;2023-08-08T06:05:29;99554.13;;;15.89;75.24
52855;BME280;38719;51.418;7.286;2023-08-08T06:07:57;99565.78;;;16.01;74.74
52855;BME280;38719;51.418;7.286;2023-08-08T06:10:25;99565.22;;;16.09;74.50
52855;BME280;38719;51.418;7.286;2023-08-08T06:12:52;99573.69;;;16.16;73.98
52855;BME280;38719;51.418;7.286;2023-08-08T06:15:20;99577.72;;;15.97;75.16
52855;BME280;38719;51.418;7.286;2023-08-08T06:17:49;99574.63;;;16.15;73.84
52855;BME280;38719;51.418;7.286;2023-08-08T06:20:17;99570.53;;;16.22;73.79
52855;BME280;38719;51.418;7.286;2023-08-08T06:22:45;99578.75;;;16.07;74.17
52855;BME280;38719;51.418;7.286;2023-08-08T06:25:13;99578.06;;;15.92;75.16
52855;BME280;38719;51.418;7.286;2023-08-08T06:27:40;99583.16;;;16.08;75.16
52855;BME280;38719;51.418;7.286;2023-08-08T06:30:08;99581.97;;;16.13;74.69
52855;BME280;38719;51.418;7.286;2023-08-08T06:32:36;99577.03;;;15.82;75.64
52855;BME280;38719;51.418;7.286;2023-08-08T06:35:06;99577.03;;;15.82;75.71
52855;BME280;38719;51.418;7.286;2023-08-08T06:37:37;99572.72;;;15.79;76.12
52855;BME280;38719;51.418;7.286;2023-08-08T06:40:06;99576.91;;;15.71;76.48
52855;BME280;38719;51.418;7.286;2023-08-08T06:42:34;99578.53;;;15.73;76.90
52855;BME280;38719;51.418;7.286;2023-08-08T06:45:02;99581.97;;;15.75;76.95
52855;BME280;38719;51.418;7.286;2023-08-08T06:47:30;99578.19;;;15.78;76.71
52855;BME280;38719;51.418;7.286;2023-08-08T06:49:58;99582.19;;;15.85;77.51
52855;BME280;38719;51.418;7.286;2023-08-08T06:52:27;99583.53;;;16.04;75.95
52855;BME280;38719;51.418;7.286;2023-08-08T06:54:54;99581.69;;;16.04;75.59
52855;BME280;38719;51.418;7.286;2023-08-08T06:57:22;99584.19;;;15.94;75.80
52855;BME280;38719;51.418;7.286;2023-08-08T06:59:50;99575.50;;;15.91;76.20
52855;BME280;38719;51.418;7.286;2023-08-08T07:02:19;99579.25;;;15.88;76.05
52855;BME280;38719;51.418;7.286;2023-08-08T07:04:47;99580.00;;;15.77;76.33
52855;BME280;38719;51.418;7.286;2023-08-08T07:07:14;99572.22;;;15.99;76.09
52855;BME280;38719;51.418;7.286;2023-08-08T07:09:44;99580.13;;;16.13;76.23
52855;BME280;38719;51.418;7.286;2023-08-08T07:12:11;99572.72;;;16.41;74.58
52855;BME280;38719;51.418;7.286;2023-08-08T07:14:39;99562.94;;;16.40;74.62
52855;BME280;38719;51.418;7.286;2023-08-08T07:17:06;99567.50;;;16.26;75.04
52855;BME280;38719;51.418;7.286;2023-08-08T07:19:35;99560.97;;;16.42;75.52
52855;BME280;38719;51.418;7.286;2023-08-08T07:22:03;99561.69;;;16.68;73.90
52855;BME280;38719;51.418;7.286;2023-08-08T07:24:30;99568.28;;;16.75;73.17
52855;BME280;38719;51.418;7.286;2023-08-08T07:26:59;99560.47;;;16.72;73.72
52855;BME280;38719;51.418;7.286;2023-08-08T07:29:27;99565.09;;;16.70;73.73
52855;BME280;38719;51.418;7.286;2023-08-08T07:31:54;99556.47;;;16.78;73.22
52855;BME280;38719;51.418;7.286;2023-08-08T07:34:22;99569.28;;;16.74;72.78
52855;BME280;38719;51.418;7.286;2023-08-08T07:36:51;99555.16;;;16.95;73.57
52855;BME280;38719;51.418;7.286;2023-08-08T07:39:18;99562.13;;;16.98;72.47
52855;BME280;38719;51.418;7.286;2023-08-08T07:41:46;99563.72;;;17.00;72.16
52855;BME280;38719;51.418;7.286;2023-08-08T07:44:15;99560.13;;;16.77;73.07
52855;BME280;38719;51.418;7.286;2023-08-08T07:46:43;99555.59;;;16.89;73.11
52855;BME280;38719;51.418;7.286;2023-08-08T07:49:10;99558.25;;;16.66;72.95
52855;BME280;38719;51.418;7.286;2023-08-08T07:51:38;99560.03;;;16.54;73.96
52855;BME280;38719;51.418;7.286;2023-08-08T07:54:05;99558.47;;;16.63;73.40
52855;BME280;38719;51.418;7.286;2023-08-08T07:56:35;99554.94;;;16.63;73.45
52855;BME280;38719;51.418;7.286;2023-08-08T07:59:03;99545.81;;;16.88;73.05
52855;BME280;38719;51.418;7.286;2023-08-08T08:01:32;99543.25;;;16.86;72.52
52855;BME280;38719;51.418;7.286;2023-08-08T08:03:59;99542.00;;;16.79;72.32
52855;BME280;38719;51.418;7.286;2023-08-08T08:06:29;99554.44;;;17.04;72.11
52855;BME280;38719;51.418;7.286;2023-08-08T08:08:56;99550.53;;;17.08;71.65
52855;BME280;38719;51.418;7.286;2023-08-08T08:11:24;99551.63;;;17.17;71.87
52855;BME280;38719;51.418;7.286;2023-08-08T08:13:52;99550.53;;;16.97;71.40
52855;BME280;38719;51.418;7.286;2023-08-08T08:16:19;99539.38;;;16.90;72.27
52855;BME280;38719;51.418;7.286;2023-08-08T08:18:48;99537.81;;;17.11;72.01
52855;BME280;38719;51.418;7.286;2023-08-08T08:21:16;99545.66;;;17.25;71.32
52855;BME280;38719;51.418;7.286;2023-08-08T08:23:44;99551.75;;;17.38;72.00
52855;BME280;38719;51.418;7.286;2023-08-08T08:26:12;99551.06;;;17.36;71.49
52855;BME280;38719;51.418;7.286;2023-08-08T08:28:39;99550.06;;;17.49;70.23
52855;BME280;38719;51.418;7.286;2023-08-08T08:31:07;99543.91;;;17.58;69.71
52855;BME280;38719;51.418;7.286;2023-08-08T08:33:35;99548.81;;;17.64;69.76
52855;BME280;38719;51.418;7.286;2023-08-08T08:36:04;99546.50;;;17.48;69.64
52855;BME280;38719;51.418;7.286;2023-08-08T08:38:32;99543.19;;;17.45;69.70
52855;BME280;38719;51.418;7.286;2023-08-08T08:41:01;99547.09;;;17.52;69.77
52855;BME280;38719;51.418;7.286;2023-08-08T08:43:30;99547.06;;;17.86;69.25
52855;BME280;38719;51.418;7.286;2023-08-08T08:46:00;99545.59;;;18.04;68.42
52855;BME280;38719;51.418;7.286;2023-08-08T08:48:28;99543.84;;;18.15;68.02
52855;BME280;38719;51.418;7.286;2023-08-08T08:50:55;99540.66;;;18.10;67.83
52855;BME280;38719;51.418;7.286;2023-08-08T08:53:25;99539.84;;;17.86;66.97
52855;BME280;38719;51.418;7.286;2023-08-08T08:55:53;99538.75;;;17.78;65.34
52855;BME280;38719;51.418;7.286;2023-08-08T08:58:24;99547.78;;;17.88;67.26
52855;BME280;38719;51.418;7.286;2023-08-08T09:00:52;99546.19;;;18.08;66.92
52855;BME280;38719;51.418;7.286;2023-08-08T09:03:20;99538.81;;;18.10;65.62
52855;BME280;38719;51.418;7.286;2023-08-08T09:05:48;99539.19;;;18.17;64.80
52855;BME280;38719;51.418;7.286;2023-08-08T09:08:16;99544.56;;;18.17;64.58
52855;BME280;38719;51.418;7.286;2023-08-08T09:10:45;99545.28;;;18.19;64.44
52855;BME280;38719;51.418;7.286;2023-08-08T09:13:13;99536.69;;;18.25;65.28
52855;BME280;38719;51.418;7.286;2023-08-08T09:15:40;99551.91;;;18.47;63.35
52855;BME280;38719;51.418;7.286;2023-08-08T09:18:08;99538.56;;;18.46;63.09
52855;BME280;38719;51.418;7.286;2023-08-08T09:20:36;99529.34;;;18.69;62.87
52855;BME280;38719;51.418;7.286;2023-08-08T09:23:04;99542.84;;;18.91;61.87
52855;BME280;38719;51.418;7.286;2023-08-08T09:25:32;99527.72;;;18.99;62.36
52855;BME280;38719;51.418;7.286;2023-08-08T09:28:01;99531.00;;;19.34;61.32
52855;BME280;38719;51.418;7.286;2023-08-08T09:30:28;99524.31;;;19.28;61.85
52855;BME280;38719;51.418;7.286;2023-08-08T09:33:00;99532.56;;;19.27;60.87
52855;BME280;38719;51.418;7.286;2023-08-08T09:35:28;99532.13;;;19.31;60.55
52855;BME280;38719;51.418;7.286;2023-08-08T09:37:56;99526.59;;;19.23;58.79
52855;BME280;38719;51.418;7.286;2023-08-08T09:40:24;99528.19;;;19.05;59.82
52855;BME280;38719;51.418;7.286;2023-08-08T09:42:52;99539.78;;;19.26;60.70
52855;BME280;38719;51.418;7.286;2023-08-08T09:45:21;99513.66;;;19.27;58.78
52855;BME280;38719;51.418;7.286;2023-08-08T09:47:50;99521.78;;;19.06;58.73
52855;BME280;38719;51.418;7.286;2023-08-08T09:50:19;99530.47;;;19.09;58.31
52855;BME280;38719;51.418;7.286;2023-08-08T09:52:47;99521.97;;;19.14;59.22
52855;BME280;38719;51.418;7.286;2023-08-08T09:55:15;99519.91;;;19.27;59.35
52855;BME280;38719;51.418;7.286;2023-08-08T09:57:42;99524.47;;;19.27;58.83
52855;BME280;38719;51.418;7.286;2023-08-08T10:00:11;99525.94;;;19.10;58.92
52855;BME280;38719;51.418;7.286;2023-08-08T10:02:45;99523.94;;;19.12;58.48
52855;BME280;38719;51.418;7.286;2023-08-08T10:05:14;99525.56;;;19.24;59.70
52855;BME280;38719;51.418;7.286;2023-08-08T10:07:42;99517.22;;;18.96;59.00
52855;BME280;38719;51.418;7.286;2023-08-08T10:10:10;99526.47;;;19.04;57.91
52855;BME280;38719;51.418;7.286;2023-08-08T10:12:38;99531.34;;;19.10;59.08
52855;BME280;38719;51.418;7.286;2023-08-08T10:15:08;99529.63;;;19.09;58.74
52855;BME280;38719;51.418;7.286;2023-08-08T10:17:37;99524.97;;;19.11;58.40
52855;BME280;38719;51.418;7.286;2023-08-08T10:20:09;99529.94;;;19.15;58.69
52855;BME280;38719;51.418;7.286;2023-08-08T10:22:42;99523.84;;;19.13;59.27
52855;BME280;38719;51.418;7.286;2023-08-08T10:25:17;99528.34;;;19.13;59.51
52855;BME280;38719;51.418;7.286;2023-08-08T10:27:45;99522.34;;;19.40;59.57
52855;BME280;38719;51.418;7.286;2023-08-08T10:30:13;99521.88;;;19.66;58.54
52855;BME280;38719;51.418;7.286;2023-08-08T10:32:44;99525.41;;;19.97;58.62
52855;BME280;38719;51.418;7.286;2023-08-08T10:35:14;99526.81;;;19.92;57.07
52855;BME280;38719;51.418;7.286;2023-08-08T10:37:52;99530.09;;;20.15;57.39
52855;BME280;38719;51.418;7.286;2023-08-08T10:40:20;99533.66;;;20.35;57.06
52855;BME280;38719;51.418;7.286;2023-08-08T10:42:48;99526.69;;;20.33;55.95
52855;BME280;38719;51.418;7.286;2023-08-08T10:45:16;99533.38;;;20.28;55.79
52855;BME280;38719;51.418;7.286;2023-08-08T10:47:44;99526.97;;;20.10;55.51
52855;BME280;38719;51.418;7.286;2023-08-08T10:50:14;99523.69;;;20.06;56.19
52855;BME280;38719;51.418;7.286;2023-08-08T10:52:53;99525.09;;;20.01;56.19
52855;BME280;38719;51.418;7.286;2023-08-08T10:55:22;99534.19;;;19.90;56.57
52855;BME280;38719;51.418;7.286;2023-08-08T10:57:55;99533.59;;;19.76;56.04
52855;BME280;38719;51.418;7.286;2023-08-08T11:00:24;99534.09;;;19.60;57.20
52855;BME280;38719;51.418;7.286;2023-08-08T11:02:53;99529.66;;;19.49;57.69
52855;BME280;38719;51.418;7.286;2023-08-08T11:05:23;99533.13;;;19.30;57.27
52855;BME280;38719;51.418;7.286;2023-08-08T11:07:52;99535.22;;;19.17;57.27
52855;BME280;38719;51.418;7.286;2023-08-08T11:10:21;99537.63;;;19.20;57.96
52855;BME280;38719;51.418;7.286;2023-08-08T11:12:55;99530.25;;;19.22;57.63
52855;BME280;38719;51.418;7.286;2023-08-08T11:15:22;99532.75;;;19.45;58.04
52855;BME280;38719;51.418;7.286;2023-08-08T11:17:50;99526.13;;;19.59;57.05
52855;BME280;38719;51.418;7.286;2023-08-08T11:20:19;99528.22;;;19.55;56.28
52855;BME280;38719;51.418;7.286;2023-08-08T11:22:52;99531.66;;;19.57;56.52
52855;BME280;38719;51.418;7.286;2023-08-08T11:25:20;99527.00;;;19.59;56.80
52855;BME280;38719;51.418;7.286;2023-08-08T11:27:49;99537.69;;;19.80;56.70
52855;BME280;38719;51.418;7.286;2023-08-08T11:30:16;99530.59;;;19.79;55.49
52855;BME280;38719;51.418;7.286;2023-08-08T11:32:45;99534.13;;;19.70;55.15
52855;BME280;38719;51.418;7.286;2023-08-08T11:35:32;99529.66;;;19.49;55.54
52855;BME280;38719;51.418;7.286;2023-08-08T11:38:03;99547.63;;;19.29;56.18
52855;BME280;38719;51.418;7.286;2023-08-08T11:40:32;99534.19;;;19.18;56.63
52855;BME280;38719;51.418;7.286;2023-08-08T11:43:02;99546.25;;;19.14;56.69
52855;BME280;38719;51.418;7.286;2023-08-08T11:45:31;99538.06;;;18.94;56.84
52855;BME280;38719;51.418;7.286;2023-08-08T11:47:59;99535.41;;;19.04;57.58
52855;BME280;38719;51.418;7.286;2023-08-08T11:50:26;99539.00;;;19.05;57.38
52855;BME280;38719;51.418;7.286;2023-08-08T11:52:55;99539.88;;;19.15;57.83
52855;BME280;38719;51.418;7.286;2023-08-08T11:55:28;99532.72;;;19.76;57.27
52855;BME280;38719;51.418;7.286;2023-08-08T11:57:56;99534.75;;;19.93;56.10
52855;BME280;38719;51.418;7.286;2023-08-08T12:00:27;99534.22;;;20.19;54.93
52855;BME280;38719;51.418;7.286;2023-08-08T12:02:56;99525.38;;;20.56;54.52
52855;BME280;38719;51.418;7.286;2023-08-08T12:05:25;99523.97;;;20.62;54.89
52855;BME280;38719;51.418;7.286;2023-08-08T12:07:53;99519.28;;;20.54;55.72
52855;BME280;38719;51.418;7.286;2023-08-08T12:10:21;99524.78;;;21.02;54.37
52855;BME280;38719;51.418;7.286;2023-08-08T12:12:55;99509.41;;;20.92;54.78
52855;BME280;38719;51.418;7.286;2023-08-08T12:15:28;99511.94;;;21.14;53.85
52855;BME280;38719;51.418;7.286;2023-08-08T12:17:57;99508.50;;;21.39;53.80
52855;BME280;38719;51.418;7.286;2023-08-08T12:20:27;99501.53;;;21.37;52.98
52855;BME280;38719;51.418;7.286;2023-08-08T12:22:56;99507.97;;;21.36;53.22
52855;BME280;38719;51.418;7.286;2023-08-08T12:25:25;99505.19;;;21.18;53.55
52855;BME280;38719;51.418;7.286;2023-08-08T12:27:53;99507.03;;;21.17;52.92
52855;BME280;38719;51.418;7.286;2023-08-08T12:30:21;99511.13;;;20.93;53.55
52855;BME280;38719;51.418;7.286;2023-08-08T12:32:49;99512.38;;;21.09;53.09
52855;BME280;38719;51.418;7.286;2023-08-08T12:35:16;99518.81;;;20.98;53.04
52855;BME280;38719;51.418;7.286;2023-08-08T12:37:44;99513.50;;;21.06;53.07
52855;BME280;38719;51.418;7.286;2023-08-08T12:40:12;99512.63;;;21.06;52.87
52855;BME280;38719;51.418;7.286;2023-08-08T12:42:40;99519.78;;;21.07;52.86
52855;BME280;38719;51.418;7.286;2023-08-08T12:45:09;99518.19;;;21.42;53.49
52855;BME280;38719;51.418;7.286;2023-08-08T12:47:37;99521.25;;;21.29;52.79
52855;BME280;38719;51.418;7.286;2023-08-08T12:50:06;99519.91;;;21.05;53.13
52855;BME280;38719;51.418;7.286;2023-08-08T12:52:34;99514.88;;;21.20;52.66
52855;BME280;38719;51.418;7.286;2023-08-08T12:55:02;99528.78;;;20.98;54.06
52855;BME280;38719;51.418;7.286;2023-08-08T12:57:30;99524.66;;;20.84;54.24
52855;BME280;38719;51.418;7.286;2023-08-08T12:59:58;99519.72;;;20.59;55.57
52855;BME280;38719;51.418;7.286;2023-08-08T13:02:27;99516.22;;;21.06;55.05
52855;BME280;38719;51.418;7.286;2023-08-08T13:04:55;99517.34;;;21.41;54.15
52855;BME280;38719;51.418;7.286;2023-08-08T13:07:23;99514.25;;;21.64;53.71